createdAt,value
2019-04-28T00:01:07.082Z,82.27
2019-04-28T00:03:39.073Z,82.49
2019-04-28T00:06:11.274Z,82.68
2019-04-28T00:08:43.244Z,82.96
2019-04-28T00:11:15.389Z,83.19
2019-04-28T00:13:47.385Z,83.28
2019-04-28T00:16:21.182Z,83.31
2019-04-28T00:18:53.200Z,83.26
2019-04-28T00:21:32.050Z,83.43
2019-04-28T00:24:28.670Z,83.58
2019-04-28T00:27:05.258Z,83.75
2019-04-28T00:29:41.172Z,83.98
2019-04-28T00:32:11.307Z,84.14
2019-04-28T00:34:43.441Z,84.15
2019-04-28T00:37:28.924Z,84.34
2019-04-28T00:40:01.405Z,84.26
2019-04-28T00:42:33.458Z,84.18
2019-04-28T00:45:06.821Z,84.06
2019-04-28T00:47:38.813Z,83.95
2019-04-28T00:50:11.753Z,83.96
2019-04-28T00:52:43.880Z,83.87
2019-04-28T00:55:15.931Z,83.87
2019-04-28T00:57:47.926Z,83.91
2019-04-28T01:00:23.157Z,83.85
2019-04-28T01:02:55.224Z,83.75
2019-04-28T01:05:27.324Z,83.68
2019-04-28T01:08:01.004Z,83.52
2019-04-28T01:10:33.168Z,83.54
2019-04-28T01:13:05.151Z,83.54
2019-04-28T01:15:49.752Z,83.65
2019-04-28T01:18:30.390Z,83.45
2019-04-28T01:21:02.339Z,83.44
2019-04-28T01:23:34.330Z,83.50
2019-04-28T01:26:06.350Z,83.48
2019-04-28T01:28:39.800Z,83.42
2019-04-28T01:31:23.368Z,83.49
2019-04-28T01:34:17.162Z,83.51
2019-04-28T01:36:49.587Z,83.47
2019-04-28T01:39:22.928Z,83.56
2019-04-28T01:41:54.915Z,83.75
2019-04-28T01:44:26.908Z,83.71
2019-04-28T01:47:00.937Z,83.79
2019-04-28T01:49:32.617Z,83.94
2019-04-28T01:52:04.936Z,84.09
2019-04-28T01:54:36.918Z,84.20
2019-04-28T01:57:10.156Z,84.33
2019-04-28T01:59:42.360Z,84.45
2019-04-28T02:02:14.469Z,84.28
2019-04-28T02:04:46.444Z,84.29
2019-04-28T02:07:20.448Z,84.26
2019-04-28T02:09:52.128Z,84.38
2019-04-28T02:12:24.106Z,84.42
2019-04-28T02:14:56.085Z,84.54
2019-04-28T02:17:28.088Z,84.56
2019-04-28T02:20:00.854Z,84.55
2019-04-28T02:22:40.005Z,84.77
2019-04-28T02:25:12.431Z,84.76
2019-04-28T02:27:44.457Z,84.61
2019-04-28T02:30:16.559Z,84.68
2019-04-28T02:32:51.556Z,84.76
2019-04-28T02:35:22.204Z,84.84
2019-04-28T02:37:54.161Z,84.84
2019-04-28T02:40:26.145Z,84.84
2019-04-28T02:42:58.112Z,85.25
2019-04-28T02:45:31.604Z,85.41
2019-04-28T02:48:05.502Z,85.46
2019-04-28T02:50:51.577Z,85.37
2019-04-28T02:53:33.165Z,85.41
2019-04-28T02:56:02.685Z,85.55
2019-04-28T02:58:34.654Z,85.67
2019-04-28T03:01:18.480Z,85.83
2019-04-28T03:03:41.022Z,85.72
2019-04-28T03:06:13.167Z,85.82
2019-04-28T03:08:45.153Z,85.98
2019-04-28T03:11:17.121Z,85.97
2019-04-28T03:13:51.112Z,86.22
2019-04-28T03:16:23.124Z,86.18
2019-04-28T03:18:55.499Z,85.78
2019-04-28T03:21:27.447Z,85.80
2019-04-28T03:24:01.260Z,85.91
2019-04-28T03:26:41.374Z,86.23
2019-04-28T03:29:21.856Z,86.48
2019-04-28T03:32:32.734Z,86.60
2019-04-28T03:34:53.763Z,86.96
2019-04-28T03:37:24.540Z,87.07
2019-04-28T03:39:56.791Z,87.20
2019-04-28T03:42:31.168Z,87.21
2019-04-28T03:45:04.054Z,87.27
2019-04-28T03:47:36.009Z,87.25
2019-04-28T03:50:10.459Z,87.28
2019-04-28T03:52:42.014Z,87.27
2019-04-28T03:55:13.978Z,87.13
2019-04-28T03:57:45.972Z,86.94
2019-04-28T04:00:18.271Z,86.86
2019-04-28T04:02:50.842Z,86.68
2019-04-28T04:05:22.951Z,86.43
2019-04-28T04:07:54.946Z,86.25
2019-04-28T04:10:50.279Z,86.07
2019-04-28T04:13:41.769Z,86.09
2019-04-28T04:16:31.522Z,86.12
2019-04-28T04:19:04.246Z,86.26
2019-04-28T04:21:36.249Z,86.17
2019-04-28T04:24:10.671Z,86.20
2019-04-28T04:26:41.928Z,86.19
2019-04-28T04:29:13.930Z,86.18
2019-04-28T04:31:45.958Z,86.15
2019-04-28T04:34:20.076Z,86.07
2019-04-28T04:36:51.677Z,85.88
2019-04-28T04:39:23.652Z,85.79
2019-04-28T04:41:55.662Z,85.79
2019-04-28T04:44:27.651Z,85.82
2019-04-28T04:47:01.011Z,85.64
2019-04-28T04:49:33.211Z,85.55
2019-04-28T04:52:05.180Z,85.43
2019-04-28T04:54:37.188Z,85.46
2019-04-28T04:57:11.108Z,85.37
2019-04-28T04:59:42.942Z,85.28
2019-04-28T05:02:33.742Z,85.44
2019-04-28T05:05:30.406Z,85.42
2019-04-28T05:08:02.403Z,85.37
2019-04-28T05:10:34.382Z,85.35
2019-04-28T05:13:06.421Z,85.39
2019-04-28T05:15:40.066Z,85.05
2019-04-28T05:18:12.137Z,84.93
2019-04-28T05:20:44.295Z,84.78
2019-04-28T05:23:30.619Z,84.53
2019-04-28T05:26:07.974Z,84.26
2019-04-28T05:28:36.955Z,83.99
2019-04-28T05:31:13.530Z,84.20
2019-04-28T05:33:44.093Z,84.28
2019-04-28T05:36:16.055Z,84.01
2019-04-28T05:38:49.650Z,83.93
2019-04-28T05:41:21.951Z,83.89
2019-04-28T05:43:53.952Z,84.08
2019-04-28T05:46:25.951Z,83.84
2019-04-28T05:49:07.140Z,83.54
2019-04-28T05:51:40.530Z,82.75
2019-04-28T05:54:31.505Z,82.55
2019-04-28T05:57:21.488Z,82.16
2019-04-28T06:00:01.180Z,82.14
2019-04-28T06:02:37.285Z,81.71
2019-04-28T06:05:10.180Z,81.49
2019-04-28T06:08:07.452Z,80.83
2019-04-28T06:10:40.107Z,80.75
2019-04-28T06:13:12.093Z,80.46
2019-04-28T06:15:44.078Z,80.10
2019-04-28T06:18:16.050Z,79.84
2019-04-28T06:20:49.681Z,78.75
2019-04-28T06:23:21.931Z,78.94
2019-04-28T06:25:53.922Z,78.81
2019-04-28T06:28:25.892Z,78.91
2019-04-28T06:30:57.876Z,78.61
2019-04-28T06:33:29.858Z,78.78
2019-04-28T06:36:01.837Z,78.84
2019-04-28T06:38:33.821Z,78.60
2019-04-28T06:41:05.853Z,78.53
2019-04-28T06:43:37.862Z,78.69
2019-04-28T06:46:09.820Z,78.35
2019-04-28T06:48:41.803Z,78.62
2019-04-28T06:51:13.882Z,77.67
2019-04-28T06:53:45.913Z,77.44
2019-04-28T06:56:17.905Z,77.34
2019-04-28T06:58:58.918Z,77.40
2019-04-28T07:01:23.962Z,77.64
2019-04-28T07:03:55.926Z,77.75
2019-04-28T07:06:27.956Z,77.40
2019-04-28T07:09:00.336Z,76.95
2019-04-28T07:11:32.309Z,76.62
2019-04-28T07:14:04.418Z,76.58
2019-04-28T07:16:36.473Z,75.64
2019-04-28T07:19:08.483Z,75.63
2019-04-28T07:21:49.672Z,74.88
2019-04-28T07:24:21.692Z,74.20
2019-04-28T07:26:53.680Z,73.97
2019-04-28T07:29:25.664Z,73.56
2019-04-28T07:31:57.753Z,72.22
2019-04-28T07:34:30.285Z,71.93
2019-04-28T07:37:02.258Z,71.38
2019-04-28T07:39:34.305Z,71.29
2019-04-28T07:42:06.356Z,71.01
2019-04-28T07:44:38.418Z,72.02
2019-04-28T07:47:10.394Z,72.53
2019-04-28T07:49:42.388Z,72.92
2019-04-28T07:52:36.003Z,73.22
2019-04-28T07:55:08.309Z,73.15
2019-04-28T07:57:40.540Z,73.73
2019-04-28T08:00:15.240Z,74.10
2019-04-28T08:02:47.250Z,74.36
2019-04-28T08:05:19.313Z,74.65
2019-04-28T08:07:51.379Z,74.79
2019-04-28T08:10:23.361Z,74.29
2019-04-28T08:12:55.298Z,73.28
2019-04-28T08:15:27.304Z,72.85
2019-04-28T08:17:59.308Z,73.10
2019-04-28T08:20:31.308Z,73.78
2019-04-28T08:23:04.258Z,73.88
2019-04-28T08:25:36.255Z,73.74
2019-04-28T08:28:08.319Z,72.93
2019-04-28T08:30:40.687Z,71.58
2019-04-28T08:33:40.856Z,70.86
2019-04-28T08:36:12.910Z,69.98
2019-04-28T08:38:44.955Z,69.44
2019-04-28T08:41:16.925Z,69.65
2019-04-28T08:43:48.886Z,69.53
2019-04-28T08:46:21.174Z,69.49
2019-04-28T08:48:53.125Z,70.02
2019-04-28T08:51:25.110Z,70.01
2019-04-28T08:53:57.106Z,69.93
2019-04-28T08:56:29.102Z,69.95
2019-04-28T08:59:01.095Z,69.23
2019-04-28T09:01:33.156Z,69.35
2019-04-28T09:04:15.239Z,69.60
2019-04-28T09:06:38.858Z,70.37
2019-04-28T09:09:15.218Z,70.09
2019-04-28T09:11:47.230Z,70.42
2019-04-28T09:14:19.239Z,69.84
2019-04-28T09:16:51.257Z,68.49
2019-04-28T09:19:23.280Z,67.90
2019-04-28T09:21:55.300Z,67.17
2019-04-28T09:24:27.246Z,67.00
2019-04-28T09:26:59.240Z,66.63
2019-04-28T09:29:31.332Z,65.54
2019-04-28T09:32:03.331Z,64.76
2019-04-28T09:34:35.338Z,64.50
2019-04-28T09:37:07.342Z,64.77
2019-04-28T09:39:56.613Z,64.50
2019-04-28T09:42:51.218Z,63.58
2019-04-28T09:45:25.965Z,64.04
2019-04-28T09:47:57.985Z,63.63
2019-04-28T09:50:30.363Z,62.72
2019-04-28T09:53:02.447Z,62.76
2019-04-28T09:55:34.470Z,63.57
2019-04-28T09:58:06.538Z,63.14
2019-04-28T10:00:40.192Z,62.25
2019-04-28T10:03:12.269Z,61.43
2019-04-28T10:05:44.256Z,60.02
2019-04-28T10:08:16.318Z,58.90
2019-04-28T10:10:48.386Z,59.17
2019-04-28T10:13:20.612Z,58.23
2019-04-28T10:15:52.605Z,57.28
2019-04-28T10:18:24.636Z,56.29
2019-04-28T10:20:56.668Z,56.39
2019-04-28T10:23:28.632Z,55.83
2019-04-28T10:26:01.053Z,56.52
2019-04-28T10:28:33.092Z,56.63
2019-04-28T10:31:06.829Z,56.07
2019-04-28T10:33:40.473Z,55.34
2019-04-28T10:36:12.738Z,55.12
2019-04-28T10:38:46.395Z,54.82
2019-04-28T10:41:25.302Z,54.29
2019-04-28T10:43:57.255Z,52.52
2019-04-28T10:46:29.289Z,52.34
2019-04-28T10:49:01.597Z,52.68
2019-04-28T10:51:33.610Z,51.21
2019-04-28T10:54:05.970Z,50.40
2019-04-28T10:56:37.984Z,50.53
2019-04-28T10:59:10.493Z,50.57
2019-04-28T11:01:42.484Z,49.55
2019-04-28T11:04:32.136Z,48.55
2019-04-28T11:07:04.408Z,48.15
2019-04-28T11:09:42.102Z,48.84
2019-04-28T11:12:19.308Z,50.07
2019-04-28T11:14:51.354Z,49.77
2019-04-28T11:17:24.018Z,49.89
2019-04-28T11:19:55.968Z,50.99
2019-04-28T11:22:27.998Z,50.79
2019-04-28T11:25:00.203Z,51.09
2019-04-28T11:27:32.240Z,52.30
2019-04-28T11:30:04.322Z,53.10
2019-04-28T11:32:37.005Z,54.25
2019-04-28T11:35:37.167Z,54.43
2019-04-28T11:38:09.194Z,55.99
2019-04-28T11:40:41.406Z,57.26
2019-04-28T11:43:13.536Z,58.61
2019-04-28T11:45:45.708Z,59.06
2019-04-28T11:48:19.298Z,58.78
2019-04-28T11:50:51.311Z,58.32
2019-04-28T11:53:23.359Z,58.72
2019-04-28T11:55:55.313Z,59.82
2019-04-28T11:58:27.616Z,60.36
2019-04-28T12:01:00.049Z,61.10
2019-04-28T12:03:32.356Z,58.69
2019-04-28T12:06:04.701Z,58.52
2019-04-28T12:08:37.153Z,59.37
2019-04-28T12:11:31.528Z,59.47
2019-04-28T12:14:14.570Z,60.41
2019-04-28T12:17:04.239Z,60.91
2019-04-28T12:19:41.858Z,61.51
2019-04-28T12:22:14.128Z,60.98
2019-04-28T12:24:46.400Z,62.25
2019-04-28T12:27:19.098Z,62.91
2019-04-28T12:29:51.366Z,63.18
2019-04-28T12:32:23.576Z,63.25
2019-04-28T12:34:55.939Z,63.33
2019-04-28T12:37:27.967Z,62.64
2019-04-28T12:40:00.158Z,62.87
2019-04-28T12:42:34.533Z,63.66
2019-04-28T12:45:07.384Z,64.99
2019-04-28T12:47:40.135Z,65.95
2019-04-28T12:50:21.801Z,67.01
2019-04-28T12:52:54.055Z,68.54
2019-04-28T12:55:26.253Z,70.26
2019-04-28T12:57:58.656Z,71.26
2019-04-28T13:01:01.923Z,72.26
2019-04-28T13:03:40.523Z,73.13
2019-04-28T13:06:15.337Z,73.82
2019-04-28T13:08:47.611Z,73.49
2019-04-28T13:11:20.177Z,74.48
2019-04-28T13:13:52.328Z,74.73
2019-04-28T13:16:26.724Z,74.21
2019-04-28T13:18:59.052Z,74.60
2019-04-28T13:21:31.478Z,75.39
2019-04-28T13:24:03.815Z,75.10
2019-04-28T13:26:36.171Z,74.43
2019-04-28T13:29:08.298Z,73.73
2019-04-28T13:31:40.562Z,74.15
2019-04-28T13:34:14.569Z,74.48
2019-04-28T13:36:46.773Z,74.98
2019-04-28T13:39:25.694Z,74.66
2019-04-28T13:41:57.931Z,74.80
2019-04-28T13:44:51.659Z,74.71
2019-04-28T13:47:23.804Z,74.70
2019-04-28T13:49:59.271Z,74.27
2019-04-28T13:52:31.263Z,73.89
2019-04-28T13:55:25.170Z,74.40
2019-04-28T13:57:59.364Z,74.22
2019-04-28T14:00:53.191Z,73.83
2019-04-28T14:03:33.168Z,74.29
2019-04-28T14:06:08.344Z,73.95
2019-04-28T14:08:40.640Z,74.15
2019-04-28T14:11:12.826Z,73.60
2019-04-28T14:13:45.349Z,73.29
2019-04-28T14:16:17.584Z,73.42
2019-04-28T14:18:49.669Z,73.50
2019-04-28T14:21:21.640Z,73.92
2019-04-28T14:23:53.792Z,73.90
2019-04-28T14:26:25.849Z,73.87
2019-04-28T14:28:57.992Z,74.69
2019-04-28T14:31:30.409Z,74.43
2019-04-28T14:34:02.392Z,73.54
2019-04-28T14:36:42.013Z,73.54
2019-04-28T14:39:10.141Z,73.72
2019-04-28T14:41:42.108Z,74.29
2019-04-28T14:44:14.207Z,74.86
2019-04-28T14:46:46.243Z,74.97
2019-04-28T14:49:18.233Z,74.78
2019-04-28T14:51:50.472Z,75.41
2019-04-28T14:54:22.468Z,76.21
2019-04-28T14:56:54.491Z,77.07
2019-04-28T14:59:26.500Z,77.52
2019-04-28T15:02:13.916Z,77.64
2019-04-28T15:05:07.820Z,76.99
2019-04-28T15:07:59.022Z,76.95
2019-04-28T15:10:48.252Z,77.81
2019-04-28T15:13:22.073Z,77.39
2019-04-28T15:15:54.155Z,76.83
2019-04-28T15:18:26.140Z,77.10
2019-04-28T15:20:58.205Z,76.96
2019-04-28T15:23:30.231Z,77.66
2019-04-28T15:26:02.266Z,77.24
2019-04-28T15:28:34.253Z,77.54
2019-04-28T15:31:06.331Z,76.69
2019-04-28T15:33:38.311Z,76.89
2019-04-28T15:36:10.710Z,76.89
2019-04-28T15:38:42.731Z,76.35
2019-04-28T15:41:21.511Z,77.13
2019-04-28T15:43:48.438Z,77.65
2019-04-28T15:46:20.683Z,77.98
2019-04-28T15:48:52.658Z,78.57
2019-04-28T15:51:24.655Z,78.83
2019-04-28T15:53:56.621Z,79.57
2019-04-28T15:56:37.242Z,80.41
2019-04-28T15:59:10.113Z,80.78
2019-04-28T16:01:42.286Z,81.27
2019-04-28T16:04:14.272Z,81.73
2019-04-28T16:06:46.290Z,82.06
2019-04-28T16:09:18.272Z,82.33
2019-04-28T16:11:50.640Z,82.49
2019-04-28T16:14:22.607Z,82.47
2019-04-28T16:16:54.601Z,82.82
2019-04-28T16:19:26.597Z,83.20
2019-04-28T16:21:58.703Z,83.22
2019-04-28T16:24:31.063Z,82.92
2019-04-28T16:27:03.172Z,82.89
2019-04-28T16:29:35.194Z,83.18
2019-04-28T16:32:09.705Z,83.39
2019-04-28T16:34:40.944Z,82.96
2019-04-28T16:37:12.947Z,83.34
2019-04-28T16:39:44.946Z,83.73
2019-04-28T16:42:35.704Z,83.74
2019-04-28T16:45:09.718Z,83.92
2019-04-28T16:47:41.706Z,84.19
2019-04-28T16:50:13.799Z,84.39
2019-04-28T16:52:45.881Z,84.77
2019-04-28T16:55:21.594Z,84.85
2019-04-28T16:58:13.077Z,85.33
2019-04-28T17:01:06.640Z,85.43
2019-04-28T17:03:38.861Z,85.91
2019-04-28T17:06:11.213Z,86.45
2019-04-28T17:08:44.699Z,87.12
2019-04-28T17:11:17.011Z,87.55
2019-04-28T17:13:49.000Z,88.20
2019-04-28T17:16:21.051Z,88.65
2019-04-28T17:18:53.077Z,88.75
2019-04-28T17:21:25.065Z,88.86
2019-04-28T17:23:57.097Z,89.25
2019-04-28T17:26:29.092Z,89.28
2019-04-28T17:29:01.385Z,89.34
2019-04-28T17:31:33.429Z,89.26
2019-04-28T17:34:05.786Z,89.36
2019-04-28T17:36:37.812Z,89.41
2019-04-28T17:39:19.188Z,89.33
2019-04-28T17:41:51.180Z,89.24
2019-04-28T17:44:23.250Z,89.37
2019-04-28T17:46:55.286Z,89.56
2019-04-28T17:49:37.292Z,90.10
2019-04-28T17:52:10.478Z,90.33
2019-04-28T17:54:42.453Z,90.54
2019-04-28T17:57:14.469Z,90.23
2019-04-28T17:59:48.090Z,90.19
2019-04-28T18:02:37.997Z,90.14
2019-04-28T18:05:38.603Z,89.94
2019-04-28T18:08:20.797Z,90.09
2019-04-28T18:10:44.892Z,90.15
2019-04-28T18:13:17.022Z,90.29
2019-04-28T18:16:09.247Z,90.49
2019-04-28T18:18:47.240Z,90.77
2019-04-28T18:21:19.211Z,90.94
2019-04-28T18:23:51.280Z,91.10
2019-04-28T18:26:23.234Z,91.44
2019-04-28T18:28:55.256Z,91.97
2019-04-28T18:31:44.823Z,92.18
2019-04-28T18:34:38.539Z,92.55
2019-04-28T18:37:42.128Z,92.68
2019-04-28T18:40:33.169Z,93.16
2019-04-28T18:43:36.233Z,93.39
2019-04-28T18:46:08.311Z,93.47
2019-04-28T18:48:40.640Z,93.16
2019-04-28T18:51:12.626Z,92.97
2019-04-28T18:53:44.746Z,93.06
2019-04-28T18:56:16.713Z,93.46
2019-04-28T18:58:48.678Z,93.72
2019-04-28T19:01:39.917Z,94.26
2019-04-28T19:04:11.959Z,94.60
2019-04-28T19:06:43.948Z,94.93
2019-04-28T19:09:29.638Z,95.28
2019-04-28T19:12:11.360Z,95.36
2019-04-28T19:14:50.241Z,95.40
2019-04-28T19:17:31.903Z,95.33
2019-04-28T19:20:04.264Z,95.32
2019-04-28T19:22:44.925Z,95.18
2019-04-28T19:25:16.919Z,95.16
2019-04-28T19:27:48.993Z,95.23
2019-04-28T19:30:21.217Z,95.40
2019-04-28T19:32:53.194Z,95.42
2019-04-28T19:35:25.216Z,95.35
2019-04-28T19:37:57.166Z,95.34
2019-04-28T19:40:29.142Z,95.59
2019-04-28T19:43:01.244Z,96.10
2019-04-28T19:45:34.858Z,96.30
2019-04-28T19:48:06.888Z,96.57
2019-04-28T19:50:38.907Z,96.40
2019-04-28T19:53:10.936Z,96.54
2019-04-28T19:55:48.167Z,96.94
2019-04-28T19:58:27.167Z,97.13
2019-04-28T20:01:12.302Z,97.31
2019-04-28T20:03:44.352Z,96.90
2019-04-28T20:06:16.399Z,96.91
2019-04-28T20:08:48.415Z,96.86
2019-04-28T20:11:20.687Z,97.02
2019-04-28T20:13:52.678Z,96.92
2019-04-28T20:16:24.647Z,96.83
2019-04-28T20:18:56.635Z,96.82
2019-04-28T20:21:28.619Z,96.80
2019-04-28T20:24:00.962Z,97.07
2019-04-28T20:26:33.003Z,97.18
2019-04-28T20:29:05.065Z,97.22
2019-04-28T20:31:37.121Z,97.11
2019-04-28T20:34:09.131Z,96.76
2019-04-28T20:37:05.449Z,96.81
2019-04-28T20:39:37.530Z,96.74
2019-04-28T20:42:26.947Z,96.80
2019-04-28T20:44:58.960Z,97.16
2019-04-28T20:47:31.347Z,97.05
2019-04-28T20:50:03.313Z,97.01
2019-04-28T20:52:35.299Z,97.22
2019-04-28T20:55:07.430Z,97.40
2019-04-28T20:57:39.431Z,97.59
2019-04-28T21:00:11.406Z,97.68
2019-04-28T21:02:43.422Z,97.73
2019-04-28T21:05:15.393Z,97.86
2019-04-28T21:07:47.492Z,97.97
2019-04-28T21:10:19.461Z,97.89
2019-04-28T21:12:51.481Z,97.89
2019-04-28T21:15:23.458Z,98.05
2019-04-28T21:17:55.420Z,98.15
2019-04-28T21:20:27.395Z,98.20
2019-04-28T21:22:59.416Z,98.35
2019-04-28T21:25:31.398Z,98.28
2019-04-28T21:28:03.428Z,98.20
2019-04-28T21:30:35.409Z,98.26
2019-04-28T21:33:07.453Z,98.31
2019-04-28T21:35:40.158Z,98.46
2019-04-28T21:38:12.156Z,98.67
2019-04-28T21:40:44.453Z,98.69
2019-04-28T21:43:44.458Z,98.78
2019-04-28T21:46:41.192Z,98.91
2019-04-28T21:49:44.130Z,98.82
2019-04-28T21:52:16.121Z,99.01
2019-04-28T21:54:48.138Z,99.00
2019-04-28T21:57:20.149Z,99.34
2019-04-28T21:59:52.143Z,99.35
2019-04-28T22:02:24.268Z,99.62
2019-04-28T22:04:56.214Z,99.59
2019-04-28T22:07:28.264Z,99.31
2019-04-28T22:10:00.300Z,99.51
2019-04-28T22:12:32.275Z,99.51
2019-04-28T22:15:04.262Z,99.35
2019-04-28T22:17:36.253Z,99.01
2019-04-28T22:20:08.512Z,99.23
2019-04-28T22:22:40.500Z,99.24
2019-04-28T22:25:16.583Z,99.13
2019-04-28T22:27:48.678Z,98.83
2019-04-28T22:30:20.976Z,98.68
2019-04-28T22:32:52.987Z,98.55
2019-04-28T22:35:24.951Z,98.46
2019-04-28T22:37:56.891Z,98.47
2019-04-28T22:40:28.883Z,98.38
2019-04-28T22:43:01.178Z,98.11
2019-04-28T22:45:33.202Z,97.92
2019-04-28T22:48:07.373Z,97.98
2019-04-28T22:50:47.895Z,97.61
2019-04-28T22:53:22.855Z,97.42
2019-04-28T22:56:01.617Z,97.23
2019-04-28T22:58:51.087Z,97.12
2019-04-28T23:01:29.887Z,96.99
2019-04-28T23:04:11.217Z,96.69
2019-04-28T23:06:43.297Z,96.57
2019-04-28T23:09:17.354Z,96.33
2019-04-28T23:11:49.907Z,96.17
2019-04-28T23:14:21.883Z,95.88
2019-04-28T23:16:53.869Z,95.47
2019-04-28T23:19:28.055Z,95.08
2019-04-28T23:22:15.014Z,94.41
2019-04-28T23:24:59.017Z,94.25
2019-04-28T23:27:30.999Z,93.90
2019-04-28T23:30:03.173Z,94.05
2019-04-28T23:32:35.115Z,93.98
2019-04-28T23:35:07.660Z,94.15
2019-04-28T23:37:40.185Z,94.04
2019-04-28T23:40:13.643Z,93.84
2019-04-28T23:42:52.211Z,93.62
2019-04-28T23:45:24.295Z,93.74
2019-04-28T23:47:56.279Z,93.96
2019-04-28T23:50:37.724Z,94.34
2019-04-28T23:53:14.011Z,94.82
2019-04-28T23:55:45.987Z,95.16
2019-04-28T23:58:18.033Z,95.41
